EmailTwitter


Observations de surface / Québec / LFRT

Régions: Québec | Canada | États-Unis | Europe | France | UK | Elsewhere
Station
Affichage
Infos & localisation pour LFRT | Aide pour décoder les METARs

Observations prises le 2017-02-24 à 10H00 UTC à SAINT-BRIEUC ARM, FR (LFRT)

Etat du ciel: quelques nuages.

Température: 8.0 Celsius

Point de rosée: 3.0 Celsius

Humidité relative: 71%

Facteur vent: 5.

Vents: Nord-nord-ouest à 15 km/h ou 8 noeuds.

Pression au niveau moyen de la mer: 102.00 kilopascals.

Visibilité horizontale: 6.21 milles terrestres ou 9.94 kilomètres.

Observation METAR:

LFRT 241000Z AUTO 34008KT 9999 FEW027 08/03 Q1020=